Time;durP1;ratioP1;P1;durP2;ratioP2;P2;SDS_P1;SDS_P2;PMS_P1;PMS_P2;Temp;Humidity;BMP_temperature;BMP_pressure;BME280_temperature;BME280_humidity;BME280_pressure;Samples;Min_cycle;Max_cycle;Signal;HPM_P1;HPM_P2
2020/12/28 01:17:46;;;;;;;14.98;5.80;;;;;;;;;;6314494;22;20027;-93
2020/12/28 01:21:23;;;;;;;23.45;5.43;;;3.10;99.90;;;;;;6308938;22;20079;-90
2020/12/28 01:24:49;;;;;;;13.07;4.55;;;;;;;;;;6251579;23;20007;-90
2020/12/28 01:28:15;;;;;;;18.50;5.40;;;;;;;;;;6259428;23;20041;-91
2020/12/28 01:31:06;;;;;;;17.45;7.13;;;;;;;;;;6203558;23;20015;-91
2020/12/28 01:34:56;;;;;;;15.65;4.82;;;;;;;;;;6225626;23;20183;-90
2020/12/28 01:37:46;;;;;;;13.57;5.18;;;;;;;;;;6209907;23;20017;-90
2020/12/28 01:40:50;;;;;;;15.50;4.22;;;;;;;;;;6217764;23;20021;-91
2020/12/28 01:48:16;;;;;;;23.98;6.13;;;;;;;;;;6234785;23;20498;-91
2020/12/28 01:51:50;;;;;;;10.93;5.35;;;;;;;;;;6209485;23;20024;-90
2020/12/28 01:55:51;;;;;;;14.23;6.20;;;;;;;;;;6247717;23;20012;-90
2020/12/28 01:59:41;;;;;;;12.32;5.13;;;;;;;;;;6235397;23;20008;-91
2020/12/28 02:07:26;;;;;;;19.48;7.70;;;;;;;;;;6244652;23;20317;-93
2020/12/28 02:10:20;;;;;;;12.10;5.80;;;;;;;;;;6269292;22;20015;-91
2020/12/28 02:13:26;;;;;;;15.63;5.72;;;;;;;;;;6224878;23;20059;-92
2020/12/28 02:16:37;;;;;;;16.98;5.88;;;;;;;;;;6253158;22;20016;-91
2020/12/28 02:19:25;;;;;;;14.55;5.93;;;;;;;;;;6240089;23;20004;-92
2020/12/28 02:22:27;;;;;;;15.48;5.95;;;;;;;;;;6233924;22;20027;-92
2020/12/28 02:25:35;;;;;;;17.90;5.70;;;;;;;;;;6302570;22;20017;-92
2020/12/28 02:28:33;;;;;;;26.45;8.77;;;;;;;;;;6327984;22;19991;-93
2020/12/28 02:34:40;;;;;;;16.55;6.53;;;;;;;;;;6261358;22;20023;-92
2020/12/28 02:37:51;;;;;;;12.77;4.63;;;;;;;;;;6276798;22;20356;-91
2020/12/28 02:41:18;;;;;;;7.57;4.28;;;;;;;;;;6311043;22;20022;-91
2020/12/28 02:44:41;;;;;;;13.93;5.78;;;;;;;;;;6310491;22;20015;-91
2020/12/28 02:47:49;;;;;;;15.45;5.38;;;;;;;;;;6307458;22;20011;-92
2020/12/28 02:50:57;;;;;;;10.75;5.63;;;;;;;;;;6284127;22;20025;-92
2020/12/28 02:54:17;;;;;;;35.88;7.00;;;;;;;;;;6284500;22;20025;-92
2020/12/28 02:58:06;;;;;;;12.27;4.50;;;2.50;99.90;;;;;;6321545;22;20003;-91
2020/12/28 03:01:11;;;;;;;14.45;4.53;;;;;;;;;;6289934;22;20015;-92
2020/12/28 03:04:14;;;;;;;12.00;4.10;;;;;;;;;;6307291;22;20020;-92
2020/12/28 03:07:21;;;;;;;15.50;5.57;;;;;;;;;;6288574;22;20082;-91
2020/12/28 03:10:27;;;;;;;7.55;4.10;;;;;;;;;;6283008;22;20018;-91
2020/12/28 03:14:00;;;;;;;14.43;4.40;;;;;;;;;;6316185;22;20107;-91
2020/12/28 03:17:31;;;;;;;7.80;4.15;;;;;;;;;;6322913;22;20023;-89
2020/12/28 03:21:02;;;;;;;6.20;3.70;;;;;;;;;;6298207;22;20019;-92
2020/12/28 03:24:15;;;;;;;11.35;4.13;;;;;;;;;;6308632;22;20025;-92
2020/12/28 03:27:19;;;;;;;13.82;4.68;;;;;;;;;;6310378;22;20025;-93
2020/12/28 03:30:46;;;;;;;14.70;5.18;;;;;;;;;;6312717;22;20011;-92
2020/12/28 03:33:51;;;;;;;11.07;5.03;;;;;;;;;;6265011;22;20011;-92
2020/12/28 03:36:58;;;;;;;9.95;3.80;;;;;;;;;;6269905;22;20020;-92
2020/12/28 03:40:04;;;;;;;9.52;4.13;;;;;;;;;;6252375;22;20026;-93
2020/12/28 03:43:19;;;;;;;6.53;3.80;;;;;;;;;;6278788;22;20026;-92
2020/12/28 03:46:24;;;;;;;9.73;4.38;;;;;;;;;;6276665;22;20029;-92
2020/12/28 03:49:39;;;;;;;11.75;5.95;;;;;;;;;;6254898;22;20016;-92
2020/12/28 03:52:47;;;;;;;10.32;4.53;;;;;;;;;;6252832;22;20022;-92
2020/12/28 03:56:03;;;;;;;9.40;3.28;;;;;;;;;;6255031;22;20004;-93
2020/12/28 03:59:36;;;;;;;13.45;4.90;;;;;;;;;;6257546;22;20004;-92
2020/12/28 04:03:06;;;;;;;12.55;4.13;;;;;;;;;;6293622;22;20079;-91
2020/12/28 04:06:15;;;;;;;10.23;4.03;;;;;;;;;;6272172;22;20012;-93
2020/12/28 04:09:29;;;;;;;12.60;4.18;;;;;;;;;;6296551;22;20034;-92
2020/12/28 04:13:12;;;;;;;12.57;4.55;;;;;;;;;;6312582;22;20120;-91
2020/12/28 04:16:58;;;;;;;10.82;5.38;;;;;;;;;;6272933;22;20024;-92
2020/12/28 04:20:24;;;;;;;8.05;4.25;;;;;;;;;;6291302;22;20016;-92
2020/12/28 04:23:33;;;;;;;5.68;3.67;;;;;;;;;;6270573;22;20022;-91
2020/12/28 04:26:19;;;;;;;12.27;4.93;;;;;;;;;;6239710;22;20015;-92
2020/12/28 04:29:28;;;;;;;9.77;5.25;;;;;;;;;;6249358;22;20026;-92
2020/12/28 04:32:16;;;;;;;13.35;4.07;;;;;;;;;;6218599;23;20031;-93
2020/12/28 04:35:02;;;;;;;10.52;3.63;;;;;;;;;;6264388;23;20459;-92
2020/12/28 04:38:30;;;;;;;10.32;3.92;;;1.40;99.90;;;;;;6243638;23;20022;-92
2020/12/28 04:41:43;;;;;;;6.47;3.40;;;;;;;;;;6262852;23;20012;-94
2020/12/28 04:45:01;;;;;;;12.73;4.15;;;;;;;;;;6268652;22;20031;-92
2020/12/28 04:48:07;;;;;;;13.63;3.90;;;;;;;;;;6216545;23;20028;-93
2020/12/28 04:50:51;;;;;;;15.05;4.65;;;;;;;;;;6218182;23;20018;-93
2020/12/28 04:54:11;;;;;;;11.60;4.25;;;;;;;;;;6191966;23;20020;-93
2020/12/28 04:57:53;;;;;;;12.10;3.58;;;;;;;;;;6262515;22;20072;-94
2020/12/28 05:00:47;;;;;;;6.57;3.50;;;;;;;;;;6223885;22;20060;-94
2020/12/28 05:04:15;;;;;;;12.25;4.55;;;;;;;;;;6242790;22;20058;-93
2020/12/28 05:07:22;;;;;;;14.82;4.60;;;;;;;;;;6171924;23;20052;-92
2020/12/28 05:10:26;;;;;;;14.55;3.78;;;;;;;;;;6214918;23;20024;-92
2020/12/28 05:13:27;;;;;;;10.15;4.13;;;;;;;;;;6213147;23;20007;-93
2020/12/28 05:16:37;;;;;;;10.48;4.60;;;1.10;99.90;;;;;;6194887;23;20023;-93
2020/12/28 05:19:35;;;;;;;9.07;3.67;;;;;;;;;;6174602;23;20020;-92
2020/12/28 05:22:48;;;;;;;6.95;3.92;;;;;;;;;;6234980;23;20020;-92
2020/12/28 05:26:35;;;;;;;8.25;3.95;;;;;;;;;;6174062;23;20025;-92
2020/12/28 05:29:29;;;;;;;11.40;3.58;;;;;;;;;;6152465;23;20024;-92
2020/12/28 05:32:39;;;;;;;5.93;3.35;;;;;;;;;;6154313;23;20009;-92
2020/12/28 05:36:04;;;;;;;13.15;4.15;;;;;;;;;;6144975;23;20018;-93
2020/12/28 05:39:19;;;;;;;16.27;5.50;;;;;;;;;;6122231;23;20018;-92
2020/12/28 05:42:17;;;;;;;16.75;6.20;;;;;;;;;;6123029;23;20043;-92
2020/12/28 05:45:22;;;;;;;28.50;7.28;;;;;;;;;;6103949;23;20030;-93
2020/12/28 05:48:33;;;;;;;15.45;5.13;;;;;;;;;;6104505;23;20017;-93
2020/12/28 05:52:31;;;;;;;12.27;4.00;;;;;;;;;;6113415;23;20022;-92
2020/12/28 05:56:05;;;;;;;;;;;;;;;;;;;;;
2020/12/28 06:03:57;;;;;;;13.07;5.25;;;;;;;;;;6115016;23;20022;-94
2020/12/28 06:12:16;;;;;;;8.57;3.70;;;;;;;;;;6114720;23;20028;-94
2020/12/28 06:16:06;;;;;;;12.77;5.20;;;;;;;;;;6266439;22;20021;-92
2020/12/28 06:19:47;;;;;;;12.70;4.30;;;;;;;;;;6339331;22;20025;-94
2020/12/28 06:23:08;;;;;;;17.77;4.07;;;;;;;;;;6327953;22;20013;-93
2020/12/28 06:26:58;;;;;;;10.55;5.03;;;;;;;;;;6330737;22;20532;-93
2020/12/28 06:30:52;;;;;;;10.90;4.28;;;;;;;;;;6325625;22;20015;-94
2020/12/28 06:37:53;;;;;;;12.50;5.65;;;;;;;;;;6324644;22;20023;-93
2020/12/28 06:42:14;;;;;;;8.98;5.00;;;;;;;;;;6343809;22;20075;-93
2020/12/28 07:03:43;;;;;;;16.95;5.88;;;;;;;;;;6119795;23;20061;-92
2020/12/28 07:08:06;;;;;;;14.38;5.65;;;;;;;;;;6132219;23;20078;-92
2020/12/28 07:11:31;;;;;;;11.65;5.28;;;;;;;;;;6114740;23;20025;-93
2020/12/28 07:36:16;;;;;;;;;;;;;;;;;;;;;
2020/12/28 07:48:07;;;;;;;22.25;7.25;;;;;;;;;;6312027;22;20034;-93
2020/12/28 07:51:54;;;;;;;35.88;8.98;;;;;;;;;;6201977;22;20505;-93
2020/12/28 07:55:37;;;;;;;45.28;9.45;;;;;;;;;;6215194;23;20023;-92
2020/12/28 08:04:02;;;;;;;28.92;8.07;;;1.50;99.90;;;;;;6141921;23;20014;-92
2020/12/28 08:07:26;;;;;;;23.88;7.82;;;;;;;;;;6217511;23;20032;-92
2020/12/28 08:27:52;;;;;;;18.02;7.45;;;;;;;;;;6328258;22;20016;-93
2020/12/28 08:30:59;;;;;;;16.77;7.05;;;;;;;;;;6267634;22;20272;-93
2020/12/28 08:34:18;;;;;;;15.57;6.18;;;;;;;;;;6242565;22;20079;-93
2020/12/28 08:37:20;;;;;;;21.55;6.93;;;;;;;;;;6197087;22;20019;-93
2020/12/28 08:40:34;;;;;;;16.85;6.40;;;;;;;;;;6299975;22;20023;-92
2020/12/28 08:44:04;;;;;;;18.25;7.05;;;;;;;;;;6246488;22;20012;-94
2020/12/28 08:53:47;;;;;;;18.63;6.90;;;;;;;;;;6297626;22;20026;-92
2020/12/28 08:56:41;;;;;;;17.33;6.65;;;;;;;;;;6269611;22;20023;-91
2020/12/28 09:00:34;;;;;;;16.95;6.25;;;2.40;99.90;;;;;;6225642;22;20097;-91
2020/12/28 09:03:48;;;;;;;15.95;5.82;;;;;;;;;;6271557;22;20007;-93
2020/12/28 09:06:28;;;;;;;;;;;2.30;99.90;;;;;;6200402;22;20022;-90
2020/12/28 09:09:28;;;;;;;15.52;6.70;;;;;;;;;;6292661;22;19918;-91
2020/12/28 09:12:56;;;;;;;17.90;5.90;;;;;;;;;;6272349;22;20019;-92
2020/12/28 09:16:45;;;;;;;17.48;7.22;;;;;;;;;;6279803;22;20060;-91
2020/12/28 09:20:09;;;;;;;12.70;5.75;;;;;;;;;;6240455;23;20016;-91
2020/12/28 09:22:59;;;;;;;16.52;6.63;;;;;;;;;;6241707;23;20020;-91
2020/12/28 09:26:09;;;;;;;18.20;7.03;;;;;;;;;;6252718;22;20076;-91
2020/12/28 09:29:18;;;;;;;;;;;2.40;99.90;;;;;;6247325;22;20063;-92
2020/12/28 09:35:38;;;;;;;14.27;7.22;;;;;;;;;;6301597;22;20067;-91
2020/12/28 09:47:52;;;;;;;16.35;6.13;;;2.60;99.90;;;;;;6338420;22;20014;-93
2020/12/28 09:51:15;;;;;;;16.65;8.18;;;;;;;;;;6313339;22;20026;-92
2020/12/28 09:54:09;;;;;;;24.58;9.07;;;;;;;;;;6296917;22;20011;-93
2020/12/28 09:57:25;;;;;;;23.77;10.47;;;;;;;;;;6272821;22;20019;-92
2020/12/28 10:04:39;;;;;;;19.60;8.60;;;;;;;;;;6340051;22;20019;-91
2020/12/28 10:07:34;;;;;;;19.30;8.68;;;;;;;;;;6253585;22;20023;-92
2020/12/28 10:10:55;;;;;;;18.38;7.88;;;;;;;;;;6328603;22;20015;-91
2020/12/28 10:14:30;;;;;;;15.98;6.50;;;;;;;;;;6335323;22;20019;-90
2020/12/28 10:18:27;;;;;;;19.98;6.20;;;;;;;;;;6309939;22;20055;-91
2020/12/28 10:22:04;;;;;;;20.73;6.77;;;2.80;99.90;;;;;;6310783;22;20019;-92
2020/12/28 10:25:31;;;;;;;14.63;6.65;;;3.10;99.90;;;;;;6329064;22;20248;-92
2020/12/28 10:28:28;;;;;;;18.33;7.32;;;;;;;;;;6299594;22;20015;-91
2020/12/28 10:31:21;;;;;;;12.52;6.72;;;;;;;;;;6299654;22;20011;-91
2020/12/28 10:34:14;;;;;;;22.80;6.43;;;;;;;;;;6253583;22;20016;-92
2020/12/28 10:41:56;;;;;;;16.77;8.18;;;3.20;99.90;;;;;;6279757;23;20030;-92
2020/12/28 10:49:17;;;;;;;15.52;7.75;;;;;;;;;;6261925;23;20026;-90
2020/12/28 10:53:23;;;;;;;12.70;6.75;;;;;;;;;;6274731;23;20034;-91
2020/12/28 10:56:47;;;;;;;13.45;8.70;;;;;;;;;;6271288;23;20012;-91
2020/12/28 11:00:21;;;;;;;21.00;7.10;;;;;;;;;;6259753;23;20024;-92
2020/12/28 11:04:01;;;;;;;18.00;6.25;;;;;;;;;;6272915;23;20034;-93
2020/12/28 11:07:28;;;;;;;12.52;6.80;;;;;;;;;;6275167;22;20019;-92
2020/12/28 11:11:26;;;;;;;15.05;8.18;;;;;;;;;;6338834;22;20023;-92
2020/12/28 11:15:29;;;;;;;14.13;7.82;;;;;;;;;;6335566;22;20029;-91
2020/12/28 11:23:01;;;;;;;20.13;8.27;;;;;;;;;;6295621;22;20022;-92
2020/12/28 11:26:28;;;;;;;21.33;8.27;;;;;;;;;;6322939;22;20011;-91
2020/12/28 11:29:41;;;;;;;22.70;9.90;;;;;;;;;;6272033;22;20256;-92
2020/12/28 11:33:34;;;;;;;14.93;6.97;;;;;;;;;;6318949;22;20034;-92
2020/12/28 11:37:36;;;;;;;17.95;7.72;;;4.20;99.90;;;;;;6215274;22;20016;-91
2020/12/28 11:40:57;;;;;;;19.75;8.63;;;;;;;;;;6242630;23;20720;-92
2020/12/28 11:44:20;;;;;;;19.58;9.35;;;;;;;;;;6155323;23;20462;-92
2020/12/28 11:50:55;;;;;;;15.70;8.15;;;;;;;;;;6274395;22;20016;-92
2020/12/28 11:54:42;;;;;;;16.85;8.82;;;;;;;;;;6266053;23;20017;-92
2020/12/28 12:01:58;;;;;;;15.50;9.38;;;;;;;;;;6277197;22;20030;-92
2020/12/28 12:10:01;;;;;;;24.17;9.68;;;;;;;;;;6092680;23;20022;-91
2020/12/28 12:59:33;;;;;;;11.18;5.68;;;;;;;;;;6327618;22;20000;-95
2020/12/28 13:53:44;;;;;;;13.05;8.45;;;;;;;;;;6296514;22;20027;-92
2020/12/28 14:00:57;;;;;;;20.90;8.82;;;;;;;;;;6313892;22;20011;-92
2020/12/28 14:04:03;;;;;;;17.83;8.40;;;;;;;;;;6204349;22;20023;-90
2020/12/28 14:07:49;;;;;;;15.38;9.02;;;;;;;;;;6238782;23;20016;-92
2020/12/28 14:11:06;;;;;;;22.02;10.18;;;;;;;;;;6179960;23;20025;-90
2020/12/28 14:14:37;;;;;;;21.75;12.38;;;;;;;;;;6121179;23;20005;-92
2020/12/28 15:28:37;;;;;;;22.40;10.65;;;;;;;;;;6221667;22;20023;-91
2020/12/28 16:34:41;;;;;;;24.10;11.95;;;3.80;99.90;;;;;;6301221;22;20023;-91
2020/12/28 16:39:20;;;;;;;31.75;14.15;;;3.60;99.90;;;;;;6308128;22;20017;-92
2020/12/28 16:46:22;;;;;;;24.98;10.15;;;;;;;;;;6315757;22;20023;-90
2020/12/28 16:49:23;;;;;;;22.67;10.27;;;;;;;;;;6257565;22;20019;-91
2020/12/28 16:52:48;;;;;;;25.52;10.25;;;;;;;;;;6339742;22;20017;-90
2020/12/28 16:55:59;;;;;;;19.02;10.40;;;;;;;;;;6300413;22;20003;-92
2020/12/28 17:06:01;;;;;;;22.70;8.57;;;;;;;;;;6297830;22;20035;-91
2020/12/28 17:26:45;;;;;;;20.33;10.93;;;;;;;;;;6268495;22;20041;-91
2020/12/28 17:29:47;;;;;;;29.52;11.63;;;;;;;;;;6298704;22;20030;-91
2020/12/28 17:33:24;;;;;;;23.42;10.43;;;;;;;;;;6273918;22;20015;-90
2020/12/28 17:36:20;;;;;;;20.95;9.63;;;;;;;;;;6291009;22;20070;-92
2020/12/28 17:39:13;;;;;;;18.30;8.65;;;;;;;;;;6280352;22;20023;-92
2020/12/28 17:42:31;;;;;;;22.15;9.13;;;;;;;;;;6301253;22;20002;-92
2020/12/28 17:45:38;;;;;;;21.35;10.93;;;;;;;;;;6316176;22;20062;-94
2020/12/28 17:49:47;;;;;;;;;;;2.80;99.90;;;;;;6287276;22;20034;-91
2020/12/28 17:53:25;;;;;;;27.50;12.90;;;2.80;99.90;;;;;;6307357;22;19905;-93
2020/12/28 17:57:21;;;;;;;21.60;11.63;;;;;;;;;;6280564;22;20036;-92
2020/12/28 18:01:09;;;;;;;24.13;11.52;;;3.00;99.90;;;;;;6259873;22;20020;-93
2020/12/28 18:03:48;;;;;;;25.38;12.80;;;;;;;;;;6274070;22;20019;-93
2020/12/28 18:17:18;;;;;;;26.98;9.80;;;;;;;;;;6297668;22;20028;-93
2020/12/28 18:20:57;;;;;;;25.05;11.13;;;;;;;;;;6298757;22;19996;-93
2020/12/28 18:23:44;;;;;;;29.55;11.95;;;;;;;;;;6227348;22;20087;-92
2020/12/28 18:27:35;;;;;;;40.13;14.85;;;;;;;;;;6293261;22;20033;-93
2020/12/28 18:33:44;;;;;;;39.17;15.60;;;;;;;;;;6325318;22;20019;-92
2020/12/28 18:36:52;;;;;;;44.10;18.13;;;;;;;;;;6189438;23;20017;-93
2020/12/28 18:40:03;;;;;;;33.75;18.70;;;;;;;;;;6182062;23;20027;-92
2020/12/28 18:43:32;;;;;;;38.72;18.00;;;;;;;;;;6206668;23;20031;-90
2020/12/28 18:51:05;;;;;;;44.63;19.55;;;;;;;;;;6196101;23;20005;-93
2020/12/28 18:55:21;;;;;;;;;;;;;;;;;;;;;
2020/12/28 19:05:49;;;;;;;42.20;18.48;;;;;;;;;;6190432;22;20019;-93
2020/12/28 19:12:55;;;;;;;49.05;19.42;;;;;;;;;;6324321;22;20019;-91
2020/12/28 19:16:08;;;;;;;39.03;20.30;;;;;;;;;;6303672;22;20030;-91
2020/12/28 20:40:16;;;;;;;61.50;22.73;;;3.90;99.90;;;;;;6266570;22;20023;-91
2020/12/28 20:50:07;;;;;;;51.42;22.10;;;;;;;;;;6317317;22;20027;-91
2020/12/28 20:57:39;;;;;;;52.42;21.45;;;;;;;;;;6294404;22;20018;-90
2020/12/28 21:05:40;;;;;;;39.17;20.08;;;;;;;;;;6321350;22;20070;-91
2020/12/28 21:13:34;;;;;;;38.22;18.70;;;;;;;;;;6273829;22;20021;-90
2020/12/28 21:20:58;;;;;;;33.92;13.55;;;;;;;;;;6261712;22;20031;-92
2020/12/28 21:34:40;;;;;;;32.83;14.68;;;;;;;;;;6295781;22;20015;-92
2020/12/28 21:53:57;;;;;;;32.55;13.63;;;;;;;;;;6293731;22;19999;-92
2020/12/28 22:02:25;;;;;;;30.67;11.52;;;;;;;;;;6274968;22;20118;-92
2020/12/28 22:10:22;;;;;;;28.17;12.90;;;;;;;;;;6159778;23;20069;-91
2020/12/28 22:14:27;;;;;;;30.58;13.68;;;;;;;;;;6206054;23;20265;-92
2020/12/28 22:22:22;;;;;;;29.73;11.85;;;;;;;;;;6202715;23;20077;-91
2020/12/28 22:48:08;;;;;;;30.55;16.60;;;;;;;;;;6285902;22;20027;-94
2020/12/28 22:52:18;;;;;;;36.13;17.05;;;4.10;99.90;;;;;;6297633;22;20037;-94
2020/12/28 23:00:02;;;;;;;32.83;14.15;;;;;;;;;;6211343;23;20017;-90
2020/12/28 23:02:45;;;;;;;38.28;15.65;;;;;;;;;;6210704;23;20005;-90
2020/12/28 23:06:44;;;;;;;27.15;13.63;;;3.90;99.90;;;;;;6074317;23;20005;-92
2020/12/28 23:10:07;;;;;;;32.67;14.82;;;;;;;;;;6156042;23;20016;-91
2020/12/28 23:13:07;;;;;;;34.72;16.25;;;;;;;;;;6141220;23;20028;-92
2020/12/28 23:16:22;;;;;;;29.88;16.73;;;;;;;;;;6117843;23;20024;-89
2020/12/28 23:42:23;;;;;;;59.35;20.33;;;;;;;;;;6300836;22;20019;-91
2020/12/28 23:45:37;;;;;;;38.30;18.65;;;;;;;;;;6315640;22;20026;-91
2020/12/28 23:48:52;;;;;;;38.22;17.40;;;;;;;;;;6276521;22;20007;-91
2020/12/28 23:52:11;;;;;;;45.25;21.23;;;;;;;;;;6301093;22;20027;-91
2020/12/28 23:55:07;;;;;;;43.97;20.67;;;;;;;;;;6325546;22;20003;-91
2020/12/28 23:58:36;;;;;;;49.72;20.77;;;4.10;99.90;;;;;;6227872;22;20015;-90
